Time;durP1;ratioP1;P1;durP2;ratioP2;P2;SDS_P1;SDS_P2;PMS_P1;PMS_P2;Temp;Humidity;BMP_temperature;BMP_pressure;BME280_temperature;BME280_humidity;BME280_pressure;Samples;Min_cycle;Max_cycle;Signal;HPM_P1;HPM_P2
2022/11/22 00:00:57;;;;;;;30.33;25.33;;;1.00;99.90;;;;;;5071848;28;20469;-78
2022/11/22 00:03:25;;;;;;;26.63;23.77;;;1.00;99.90;;;;;;5071949;28;20559;-78
2022/11/22 00:05:54;;;;;;;28.20;25.00;;;1.00;99.90;;;;;;5073592;28;20456;-78
2022/11/22 00:08:23;;;;;;;26.10;23.30;;;1.00;99.90;;;;;;5073508;28;20436;-78
2022/11/22 00:10:52;;;;;;;27.97;24.50;;;1.00;99.90;;;;;;5073069;28;20454;-78
2022/11/22 00:13:21;;;;;;;27.80;24.60;;;1.10;99.90;;;;;;5071969;28;20461;-78
2022/11/22 00:15:58;;;;;;;28.30;24.97;;;1.10;99.90;;;;;;5073503;28;20506;-78
2022/11/22 00:18:26;;;;;;;26.93;23.83;;;1.10;99.90;;;;;;5075993;28;20851;-78
2022/11/22 00:20:54;;;;;;;29.23;24.03;;;1.10;99.90;;;;;;5077504;28;20889;-78
2022/11/22 00:23:23;;;;;;;29.47;24.93;;;1.10;99.90;;;;;;5077097;28;20994;-78
2022/11/22 00:25:52;;;;;;;25.57;22.60;;;1.10;99.90;;;;;;5077799;28;20444;-78
2022/11/22 00:28:20;;;;;;;27.20;23.93;;;1.10;99.90;;;;;;5075924;28;20441;-78
2022/11/22 00:30:48;;;;;;;25.73;22.30;;;1.10;99.90;;;;;;5077239;28;20456;-77
2022/11/22 00:33:16;;;;;;;27.50;23.43;;;1.10;99.90;;;;;;5077062;28;20461;-77
2022/11/22 00:35:45;;;;;;;31.90;24.53;;;1.10;99.90;;;;;;5075827;28;20468;-77
2022/11/22 00:38:13;;;;;;;28.33;23.90;;;1.10;99.90;;;;;;5076414;28;20461;-77
2022/11/22 00:40:42;;;;;;;32.30;26.33;;;1.10;99.90;;;;;;5077731;28;20854;-77
2022/11/22 00:43:12;;;;;;;28.37;22.83;;;1.10;99.90;;;;;;5077079;28;20491;-77
2022/11/22 00:45:41;;;;;;;24.60;20.80;;;1.10;99.90;;;;;;5075674;28;20449;-77
2022/11/22 00:48:09;;;;;;;27.37;24.47;;;1.10;99.90;;;;;;5075870;28;20445;-77
2022/11/22 00:50:37;;;;;;;26.50;20.80;;;1.10;99.90;;;;;;5076603;28;20446;-77
2022/11/22 00:53:05;;;;;;;29.47;23.83;;;1.10;99.90;;;;;;5076002;28;20473;-77
2022/11/22 00:55:33;;;;;;;25.07;22.43;;;1.10;99.90;;;;;;5075445;28;20441;-77
2022/11/22 00:58:04;;;;;;;24.30;21.13;;;1.10;99.90;;;;;;5077113;28;20904;-77
2022/11/22 01:00:34;;;;;;;26.43;21.57;;;1.00;99.90;;;;;;5076909;28;20434;-77
2022/11/22 01:03:02;;;;;;;26.70;22.87;;;1.10;99.90;;;;;;5075234;28;20530;-77
2022/11/22 01:05:30;;;;;;;25.33;22.60;;;1.10;99.90;;;;;;5075235;28;20870;-77
2022/11/22 01:07:58;;;;;;;28.53;24.17;;;1.00;99.90;;;;;;5075156;28;20476;-77
2022/11/22 01:10:26;;;;;;;24.80;22.00;;;1.00;99.90;;;;;;5076305;28;20946;-77
2022/11/22 01:12:56;;;;;;;28.10;24.40;;;1.10;99.90;;;;;;5075003;28;20476;-77
2022/11/22 01:15:24;;;;;;;27.57;23.97;;;1.00;99.90;;;;;;5076234;28;20509;-77
2022/11/22 01:17:54;;;;;;;27.30;22.63;;;1.00;99.90;;;;;;5076316;28;20451;-77
2022/11/22 01:20:22;;;;;;;28.83;23.60;;;1.00;99.90;;;;;;5076537;28;20430;-77
2022/11/22 01:22:50;;;;;;;29.50;23.40;;;1.10;99.90;;;;;;5074804;28;20891;-77
2022/11/22 01:25:18;;;;;;;30.13;25.90;;;1.10;99.90;;;;;;5076390;28;20760;-77
2022/11/22 01:27:47;;;;;;;29.50;22.90;;;1.10;99.90;;;;;;5074672;28;20951;-77
2022/11/22 01:30:15;;;;;;;29.30;24.23;;;1.10;99.90;;;;;;5075606;28;20946;-77
2022/11/22 01:32:43;;;;;;;28.80;24.60;;;1.10;99.90;;;;;;5074688;28;20514;-77
2022/11/22 01:35:13;;;;;;;28.93;25.37;;;1.10;99.90;;;;;;5074749;28;20453;-77
2022/11/22 01:37:41;;;;;;;32.63;26.30;;;1.10;99.90;;;;;;5075856;28;20932;-77
2022/11/22 01:40:11;;;;;;;30.00;24.37;;;1.10;99.90;;;;;;5075850;28;20459;-77
2022/11/22 01:42:44;;;;;;;35.43;25.00;;;1.10;99.90;;;;;;5075632;28;20480;-77
2022/11/22 01:45:44;;;;;;;31.77;24.57;;;1.10;99.90;;;;;;5075795;28;20827;-77
2022/11/22 01:48:32;;;;;;;34.90;27.10;;;1.10;99.90;;;;;;5074415;28;20456;-77
2022/11/22 01:51:06;;;;;;;32.27;24.13;;;1.10;99.90;;;;;;5075770;28;20456;-77
2022/11/22 01:53:37;;;;;;;38.80;28.90;;;1.10;99.90;;;;;;5074378;28;20469;-77
2022/11/22 01:56:10;;;;;;;37.27;30.03;;;1.10;99.90;;;;;;5074288;28;20441;-77
2022/11/22 01:58:41;;;;;;;35.33;27.23;;;1.10;99.90;;;;;;5074350;28;20450;-76
2022/11/22 02:01:09;;;;;;;37.60;26.30;;;1.10;99.90;;;;;;5074111;28;20438;-77
2022/11/22 02:03:41;;;;;;;32.17;27.30;;;1.20;99.90;;;;;;5075394;28;20518;-77
2022/11/22 02:06:11;;;;;;;33.00;25.53;;;1.20;99.90;;;;;;5074202;28;20462;-77
2022/11/22 02:08:44;;;;;;;35.33;27.70;;;1.10;99.90;;;;;;5074111;28;20453;-77
2022/11/22 02:11:14;;;;;;;39.60;27.90;;;1.10;99.90;;;;;;5075651;28;20445;-77
2022/11/22 02:13:43;;;;;;;36.27;26.10;;;1.10;99.90;;;;;;5075258;28;20445;-77
2022/11/22 02:16:12;;;;;;;35.33;26.70;;;1.20;99.90;;;;;;5073943;28;20937;-77
2022/11/22 02:18:40;;;;;;;42.00;28.60;;;1.20;99.90;;;;;;5073851;28;20475;-77
2022/11/22 02:21:10;;;;;;;40.00;28.30;;;1.20;99.90;;;;;;5073967;28;20445;-77
2022/11/22 02:23:50;;;;;;;39.03;26.80;;;1.20;99.90;;;;;;5075176;28;20541;-77
2022/11/22 02:26:20;;;;;;;40.97;28.87;;;1.20;99.90;;;;;;5075425;28;20505;-77
2022/11/22 02:28:49;;;;;;;42.77;29.80;;;1.20;99.90;;;;;;5077226;28;20433;-77
2022/11/22 02:31:38;;;;;;;40.93;25.50;;;1.20;99.90;;;;;;5077802;28;20492;-78
2022/11/22 02:34:06;;;;;;;42.63;29.23;;;1.20;99.90;;;;;;5076452;28;20457;-78
2022/11/22 02:36:39;;;;;;;39.60;27.00;;;1.20;99.90;;;;;;5074017;28;20437;-78
2022/11/22 02:39:09;;;;;;;43.77;29.30;;;1.20;99.90;;;;;;5073710;28;20942;-78
2022/11/22 02:41:39;;;;;;;46.50;31.10;;;1.20;99.90;;;;;;5073886;28;20435;-78
2022/11/22 02:44:09;;;;;;;50.50;27.70;;;1.30;99.90;;;;;;5074876;28;20818;-78
2022/11/22 02:46:46;;;;;;;48.47;31.73;;;1.20;99.90;;;;;;5073262;28;20552;-78
2022/11/22 02:49:17;;;;;;;48.07;31.97;;;1.20;99.90;;;;;;5073303;28;20802;-77
2022/11/22 02:51:45;;;;;;;45.93;30.20;;;1.20;99.90;;;;;;5074423;28;20828;-77
2022/11/22 02:54:13;;;;;;;48.27;29.47;;;1.20;99.90;;;;;;5073302;28;21100;-77
2022/11/22 02:56:43;;;;;;;47.57;29.13;;;1.30;99.90;;;;;;5074404;28;20444;-77
2022/11/22 02:59:11;;;;;;;49.60;33.23;;;1.30;99.90;;;;;;5072970;28;20457;-77
2022/11/22 03:01:39;;;;;;;51.93;28.63;;;1.30;99.90;;;;;;5074224;28;20438;-77
2022/11/22 03:04:07;;;;;;;57.87;34.07;;;1.30;99.90;;;;;;5073720;28;20461;-78
2022/11/22 03:06:35;;;;;;;55.23;32.63;;;1.30;99.90;;;;;;5072873;28;20796;-77
2022/11/22 03:09:04;;;;;;;51.80;31.67;;;1.30;99.90;;;;;;5072814;28;20446;-77
2022/11/22 03:11:32;;;;;;;52.67;31.63;;;1.30;99.90;;;;;;5074080;28;20441;-78
2022/11/22 03:14:01;;;;;;;57.60;31.43;;;1.30;99.90;;;;;;5073906;28;20475;-77
2022/11/22 03:16:30;;;;;;;55.90;34.33;;;1.30;99.90;;;;;;5074285;28;20927;-78
2022/11/22 03:18:58;;;;;;;59.03;33.17;;;1.30;99.90;;;;;;5072652;28;20449;-78
2022/11/22 03:21:26;;;;;;;56.03;34.37;;;1.30;99.90;;;;;;5072661;28;20453;-78
2022/11/22 03:23:55;;;;;;;57.40;33.77;;;1.40;99.90;;;;;;5072495;28;20941;-78
2022/11/22 03:26:23;;;;;;;59.70;34.87;;;1.40;99.90;;;;;;5074057;28;20442;-78
2022/11/22 03:28:51;;;;;;;60.33;35.20;;;1.40;99.90;;;;;;5073804;28;20490;-78
2022/11/22 03:31:21;;;;;;;57.73;33.80;;;1.40;99.90;;;;;;5072743;28;20473;-78
2022/11/22 03:33:49;;;;;;;64.23;35.83;;;1.40;99.90;;;;;;5073636;28;20987;-78
2022/11/22 03:36:17;;;;;;;53.50;33.50;;;1.40;99.90;;;;;;5073984;28;20449;-78
2022/11/22 03:38:45;;;;;;;59.47;36.20;;;1.40;99.90;;;;;;5074001;28;20496;-78
2022/11/22 03:41:14;;;;;;;58.93;35.27;;;1.40;99.90;;;;;;5076703;28;20438;-78
2022/11/22 03:43:42;;;;;;;54.90;28.53;;;1.40;99.90;;;;;;5077847;28;20481;-78
2022/11/22 03:46:14;;;;;;;63.90;37.37;;;1.40;99.90;;;;;;5073271;28;20508;-79
2022/11/22 03:48:44;;;;;;;59.87;32.67;;;1.40;99.90;;;;;;5075987;28;20488;-78
2022/11/22 03:51:12;;;;;;;58.80;35.40;;;1.40;99.90;;;;;;5074756;28;20519;-78
2022/11/22 03:53:40;;;;;;;64.23;38.27;;;1.50;99.90;;;;;;5073516;28;20461;-78
2022/11/22 03:56:08;;;;;;;62.00;36.57;;;1.50;99.90;;;;;;5074400;28;20446;-78
2022/11/22 03:58:36;;;;;;;59.00;35.83;;;1.50;99.90;;;;;;5074460;28;20455;-78
2022/11/22 04:01:05;;;;;;;60.03;36.93;;;1.50;99.90;;;;;;5073659;28;20449;-78
2022/11/22 04:03:33;;;;;;;58.83;37.70;;;1.50;99.90;;;;;;5073685;28;20530;-78
2022/11/22 04:06:02;;;;;;;60.03;37.27;;;1.50;99.90;;;;;;5073686;28;20438;-78
2022/11/22 04:08:30;;;;;;;61.37;38.07;;;1.50;99.90;;;;;;5073681;28;20433;-78
2022/11/22 04:10:58;;;;;;;61.60;38.47;;;1.50;99.90;;;;;;5073751;28;20445;-78
2022/11/22 04:15:05;;;;;;;60.63;39.27;;;1.60;99.90;;;;;;5073502;28;20473;-78
2022/11/22 04:16:14;;;;;;;55.00;35.83;;;1.60;99.90;;;;;;5073362;28;20805;-78
2022/11/22 04:18:42;;;;;;;68.70;40.33;;;1.60;99.90;;;;;;5073167;28;20936;-78
2022/11/22 04:26:42;;;;;;;59.37;37.67;;;1.60;99.90;;;;;;5073132;28;20438;-77
2022/11/22 04:29:10;;;;;;;62.57;39.13;;;1.60;99.90;;;;;;5071798;28;20461;-77
2022/11/22 04:34:24;;;;;;;56.40;33.90;;;1.60;99.90;;;;;;5072996;28;20453;-77
2022/11/22 04:36:53;;;;;;;57.33;37.47;;;1.60;99.90;;;;;;5072250;28;20449;-77
2022/11/22 04:39:21;;;;;;;54.90;36.10;;;1.70;99.90;;;;;;5073294;28;20467;-77
2022/11/22 04:44:39;;;;;;;49.67;33.83;;;1.70;99.90;;;;;;5073181;28;20449;-77
2022/11/22 04:44:40;;;;;;;53.13;34.53;;;1.70;99.90;;;;;;5071536;28;20469;-77
2022/11/22 04:47:08;;;;;;;55.13;36.57;;;1.70;99.90;;;;;;5071940;28;20446;-77
2022/11/22 04:49:36;;;;;;;50.50;34.93;;;1.70;99.90;;;;;;5072823;28;20515;-76
2022/11/22 04:54:52;;;;;;;53.30;37.43;;;1.80;99.90;;;;;;5071617;28;20436;-77
2022/11/22 04:57:20;;;;;;;52.37;33.53;;;1.70;99.90;;;;;;5071518;28;20451;-77
2022/11/22 04:59:48;;;;;;;52.90;34.30;;;1.70;99.90;;;;;;5072947;28;20449;-77
2022/11/22 05:02:16;;;;;;;53.57;33.53;;;1.70;99.90;;;;;;5072249;28;20824;-77
2022/11/22 05:04:44;;;;;;;49.60;34.17;;;1.70;99.90;;;;;;5075303;28;20473;-77
2022/11/22 05:07:19;;;;;;;48.17;34.17;;;1.80;99.90;;;;;;5076809;28;20433;-77
2022/11/22 05:09:47;;;;;;;49.00;35.00;;;1.80;99.90;;;;;;5075112;28;20974;-77
2022/11/22 05:12:15;;;;;;;51.27;35.33;;;1.80;99.90;;;;;;5076650;28;20760;-77
2022/11/22 05:14:43;;;;;;;51.20;35.13;;;1.80;99.90;;;;;;5074890;28;20456;-77
2022/11/22 05:17:11;;;;;;;48.13;34.13;;;1.80;99.90;;;;;;5074881;28;20449;-77
2022/11/22 05:19:40;;;;;;;50.37;34.87;;;1.80;99.90;;;;;;5074879;28;20538;-77
2022/11/22 05:22:16;;;;;;;47.77;33.20;;;1.80;99.90;;;;;;5076485;28;20896;-77
2022/11/22 05:24:44;;;;;;;51.03;32.57;;;1.80;99.90;;;;;;5076058;28;20462;-77
2022/11/22 05:27:12;;;;;;;53.00;35.97;;;1.80;99.90;;;;;;5076147;28;20433;-77
2022/11/22 05:29:40;;;;;;;45.10;34.87;;;1.90;99.90;;;;;;5075875;28;20450;-77
2022/11/22 05:32:08;;;;;;;48.93;34.30;;;1.90;99.90;;;;;;5076170;28;20527;-77
2022/11/22 05:34:36;;;;;;;45.20;30.67;;;1.90;99.90;;;;;;5075917;28;20465;-77
2022/11/22 05:37:04;;;;;;;41.80;29.40;;;1.90;99.90;;;;;;5074644;28;20439;-77
2022/11/22 05:39:32;;;;;;;48.10;31.97;;;1.90;99.90;;;;;;5075514;28;20449;-76
2022/11/22 05:42:04;;;;;;;45.37;31.40;;;1.90;99.90;;;;;;5076269;28;20450;-77
2022/11/22 05:44:32;;;;;;;48.47;32.63;;;1.90;99.90;;;;;;5075656;28;20473;-77
2022/11/22 05:47:00;;;;;;;45.53;32.57;;;1.90;99.90;;;;;;5074633;28;20438;-77
2022/11/22 05:49:29;;;;;;;47.33;33.40;;;1.90;99.90;;;;;;5074977;28;20447;-77
2022/11/22 05:51:57;;;;;;;49.70;33.90;;;1.90;99.90;;;;;;5075670;28;20506;-77
2022/11/22 05:54:25;;;;;;;49.47;34.47;;;1.90;99.90;;;;;;5074267;28;20902;-77
2022/11/22 05:56:53;;;;;;;48.00;31.63;;;2.00;99.90;;;;;;5074304;28;20450;-76
2022/11/22 05:59:23;;;;;;;45.50;32.60;;;2.00;99.90;;;;;;5074327;28;20460;-77
2022/11/22 06:01:51;;;;;;;49.80;34.17;;;2.00;99.90;;;;;;5075493;28;20849;-77
2022/11/22 06:04:19;;;;;;;43.50;32.17;;;2.00;99.90;;;;;;5074049;28;20530;-77
2022/11/22 06:06:47;;;;;;;45.77;31.00;;;2.00;99.90;;;;;;5075620;28;20523;-77
2022/11/22 06:09:15;;;;;;;52.23;35.53;;;2.00;99.90;;;;;;5075528;28;20819;-77
2022/11/22 06:11:43;;;;;;;51.00;34.13;;;2.00;99.90;;;;;;5074116;28;20455;-77
2022/11/22 06:14:11;;;;;;;48.90;33.40;;;2.00;99.90;;;;;;5075018;28;21001;-77
2022/11/22 06:16:41;;;;;;;51.13;33.00;;;2.00;99.90;;;;;;5074124;28;20438;-77
2022/11/22 06:19:09;;;;;;;45.90;31.37;;;2.00;99.90;;;;;;5075110;28;20444;-77
2022/11/22 06:21:37;;;;;;;49.77;32.57;;;2.00;99.90;;;;;;5073875;28;20527;-77
2022/11/22 06:24:06;;;;;;;48.53;32.70;;;2.10;99.90;;;;;;5074430;28;20477;-77
2022/11/22 06:26:34;;;;;;;46.47;33.00;;;2.00;99.90;;;;;;5079977;28;20454;-77
2022/11/22 06:29:06;;;;;;;47.47;32.60;;;2.00;99.90;;;;;;5076063;28;20438;-77
2022/11/22 06:31:34;;;;;;;48.93;32.30;;;2.10;99.90;;;;;;5075504;28;20439;-77
2022/11/22 06:34:04;;;;;;;46.83;32.07;;;2.10;99.90;;;;;;5075411;28;20467;-78
2022/11/22 06:36:34;;;;;;;49.30;33.20;;;2.10;99.90;;;;;;5075114;28;20485;-78
2022/11/22 06:39:02;;;;;;;46.03;32.00;;;2.10;99.90;;;;;;5073678;28;20455;-78
2022/11/22 06:41:33;;;;;;;49.20;33.20;;;2.10;99.90;;;;;;5073585;28;20499;-78
2022/11/22 06:44:05;;;;;;;54.00;35.07;;;2.10;99.90;;;;;;5075398;28;20485;-78
2022/11/22 06:46:36;;;;;;;53.70;36.90;;;2.10;99.90;;;;;;5075053;28;20429;-77
2022/11/22 06:49:05;;;;;;;48.70;33.33;;;2.20;99.90;;;;;;5074556;28;20450;-78
2022/11/22 06:51:34;;;;;;;44.67;31.90;;;2.10;99.90;;;;;;5073204;28;20458;-78
2022/11/22 06:54:02;;;;;;;52.63;33.23;;;2.10;99.90;;;;;;5075057;28;20465;-78
2022/11/22 06:56:32;;;;;;;47.50;33.07;;;2.10;99.90;;;;;;5074406;28;20532;-78
2022/11/22 06:59:02;;;;;;;49.10;34.07;;;2.20;99.90;;;;;;5073095;28;20459;-78
2022/11/22 07:01:31;;;;;;;50.80;34.60;;;2.20;99.90;;;;;;5071820;28;20425;-78
2022/11/22 07:04:00;;;;;;;52.50;34.73;;;2.20;99.90;;;;;;5072830;28;20985;-79
2022/11/22 07:06:31;;;;;;;47.73;32.10;;;2.20;99.90;;;;;;5074167;28;20451;-78
2022/11/22 07:09:01;;;;;;;45.87;33.93;;;2.20;99.90;;;;;;5072868;28;20865;-77
2022/11/22 07:11:31;;;;;;;47.83;32.80;;;2.20;99.90;;;;;;5074002;28;20452;-77
2022/11/22 07:14:01;;;;;;;44.97;31.03;;;2.20;99.90;;;;;;5072961;28;20839;-77
2022/11/22 07:16:37;;;;;;;48.40;33.47;;;2.20;99.90;;;;;;5072831;28;20935;-77
2022/11/22 07:19:06;;;;;;;50.77;34.40;;;2.20;99.90;;;;;;5073952;28;20453;-77
2022/11/22 07:21:37;;;;;;;44.83;32.00;;;2.20;99.90;;;;;;5074013;28;20810;-77
2022/11/22 07:24:06;;;;;;;46.63;32.73;;;2.20;99.90;;;;;;5073989;28;20460;-77
2022/11/22 07:26:34;;;;;;;48.43;34.03;;;2.20;99.90;;;;;;5073677;28;20531;-78
2022/11/22 07:29:02;;;;;;;50.90;34.47;;;2.30;99.90;;;;;;5072484;28;20490;-77
2022/11/22 07:31:30;;;;;;;48.53;34.20;;;2.30;99.90;;;;;;5072519;28;20445;-77
2022/11/22 07:33:58;;;;;;;54.53;36.57;;;2.30;99.90;;;;;;5073685;28;20531;-77
2022/11/22 07:36:28;;;;;;;49.60;34.87;;;2.30;99.90;;;;;;5073701;28;20438;-77
2022/11/22 07:38:58;;;;;;;48.97;34.80;;;2.30;99.90;;;;;;5072400;28;20482;-78
2022/11/22 07:41:26;;;;;;;51.73;32.17;;;2.30;99.90;;;;;;5072347;28;20440;-78
2022/11/22 07:43:54;;;;;;;51.17;33.67;;;2.30;99.90;;;;;;5073506;28;20475;-78
2022/11/22 07:46:25;;;;;;;54.60;35.97;;;2.30;99.90;;;;;;5072184;28;20516;-77
2022/11/22 07:48:53;;;;;;;54.23;35.10;;;2.40;99.90;;;;;;5072191;28;20469;-77
2022/11/22 07:51:21;;;;;;;52.10;35.43;;;2.40;99.90;;;;;;5072001;28;20509;-77
2022/11/22 07:53:51;;;;;;;49.60;35.13;;;2.40;99.90;;;;;;5072059;28;20469;-77
2022/11/22 07:56:20;;;;;;;50.90;34.30;;;2.40;99.90;;;;;;5073686;28;20433;-77
2022/11/22 07:58:48;;;;;;;49.57;35.20;;;2.40;99.90;;;;;;5072054;28;20796;-77
2022/11/22 08:01:18;;;;;;;53.20;36.70;;;2.40;99.90;;;;;;5073611;28;20444;-77
2022/11/22 08:03:47;;;;;;;53.90;35.33;;;2.50;99.90;;;;;;5073719;28;20866;-77
2022/11/22 08:06:15;;;;;;;53.97;36.80;;;2.50;99.90;;;;;;5075184;28;20468;-78
2022/11/22 08:08:44;;;;;;;50.47;37.10;;;2.50;99.90;;;;;;5072597;28;20459;-78
2022/11/22 08:11:12;;;;;;;58.27;35.90;;;2.50;99.90;;;;;;5073281;28;20441;-78
2022/11/22 08:13:43;;;;;;;62.53;40.73;;;2.50;99.90;;;;;;5073116;28;20465;-78
2022/11/22 08:16:13;;;;;;;48.17;35.47;;;2.50;99.90;;;;;;5073608;28;20514;-78
2022/11/22 08:18:42;;;;;;;55.60;38.00;;;2.50;99.90;;;;;;5073362;28;20453;-78
2022/11/22 08:21:11;;;;;;;55.00;37.20;;;2.60;99.90;;;;;;5073371;28;20496;-78
2022/11/22 08:23:40;;;;;;;60.07;39.73;;;2.60;99.90;;;;;;5071771;28;20472;-78
2022/11/22 08:26:11;;;;;;;55.13;37.27;;;2.50;99.90;;;;;;5071789;28;20476;-78
2022/11/22 08:28:39;;;;;;;55.30;38.77;;;2.60;99.90;;;;;;5071945;28;20452;-77
2022/11/22 08:31:11;;;;;;;60.00;40.77;;;2.60;99.90;;;;;;5071920;28;20967;-78
2022/11/22 08:33:39;;;;;;;52.63;36.50;;;2.60;99.90;;;;;;5071805;28;20507;-78
2022/11/22 08:36:08;;;;;;;58.33;39.63;;;2.60;99.90;;;;;;5071769;28;20437;-78
2022/11/22 08:38:36;;;;;;;57.90;36.23;;;2.60;99.90;;;;;;5074091;28;20472;-77
2022/11/22 08:41:06;;;;;;;54.93;38.53;;;2.70;99.90;;;;;;5075759;28;20461;-78
2022/11/22 08:43:34;;;;;;;52.00;37.87;;;2.70;99.90;;;;;;5077464;28;20512;-78
2022/11/22 08:46:02;;;;;;;56.50;39.33;;;2.70;99.90;;;;;;5075488;28;20473;-78
2022/11/22 08:48:33;;;;;;;55.70;39.13;;;2.70;99.90;;;;;;5076888;28;20462;-78
2022/11/22 08:51:03;;;;;;;53.47;37.33;;;2.70;99.90;;;;;;5077594;28;20789;-78
2022/11/22 08:53:32;;;;;;;52.67;37.13;;;2.70;99.90;;;;;;5075663;28;20552;-78
2022/11/22 08:56:02;;;;;;;56.87;38.97;;;2.80;99.90;;;;;;5075480;28;20544;-77
2022/11/22 08:58:30;;;;;;;50.07;36.50;;;2.80;99.90;;;;;;5077116;28;20839;-78
2022/11/22 09:01:04;;;;;;;53.80;37.20;;;2.80;99.90;;;;;;5075647;28;20463;-78
2022/11/22 09:03:34;;;;;;;52.77;37.80;;;2.80;99.90;;;;;;5075713;28;20463;-78
2022/11/22 09:06:03;;;;;;;55.10;38.37;;;2.80;99.90;;;;;;5075446;28;20547;-78
2022/11/22 09:08:52;;;;;;;55.20;37.83;;;2.80;99.90;;;;;;5076775;28;20800;-78
2022/11/22 09:11:40;;;;;;;57.10;36.60;;;2.90;99.90;;;;;;5075295;28;20475;-78
2022/11/22 09:14:08;;;;;;;55.00;37.83;;;2.90;99.90;;;;;;5075153;28;21020;-78
2022/11/22 09:16:36;;;;;;;58.27;39.73;;;2.90;99.90;;;;;;5075236;28;20524;-78
2022/11/22 09:19:06;;;;;;;50.90;37.00;;;2.90;99.90;;;;;;5076820;28;20436;-78
2022/11/22 09:21:34;;;;;;;54.23;37.20;;;2.90;99.90;;;;;;5075285;28;20523;-78
2022/11/22 09:24:02;;;;;;;50.53;36.03;;;2.90;99.90;;;;;;5076636;28;20487;-78
2022/11/22 09:26:30;;;;;;;54.63;39.23;;;3.00;99.90;;;;;;5075476;28;20475;-78
2022/11/22 09:28:58;;;;;;;55.77;38.27;;;3.00;99.90;;;;;;5075200;28;20450;-78
2022/11/22 09:31:26;;;;;;;52.50;35.60;;;3.00;99.90;;;;;;5076689;28;20445;-78
2022/11/22 09:33:55;;;;;;;49.17;36.53;;;3.10;99.90;;;;;;5076748;28;20456;-78
2022/11/22 09:36:26;;;;;;;54.33;37.10;;;3.10;99.90;;;;;;5075296;28;20495;-78
2022/11/22 09:38:55;;;;;;;54.33;40.33;;;3.10;99.90;;;;;;5076678;28;20425;-78
2022/11/22 09:41:47;;;;;;;40.97;29.90;;;3.10;99.90;;;;;;5075074;28;20968;-78
2022/11/22 09:44:23;;;;;;;49.40;36.40;;;3.20;99.90;;;;;;5074775;28;20470;-78
2022/11/22 09:46:54;;;;;;;50.93;36.83;;;3.20;99.90;;;;;;5074893;28;20492;-78
2022/11/22 09:49:29;;;;;;;46.97;35.07;;;3.20;99.90;;;;;;5075996;28;20452;-78
2022/11/22 09:52:06;;;;;;;47.70;35.00;;;3.20;99.90;;;;;;5078943;28;20455;-77
2022/11/22 09:54:42;;;;;;;50.33;36.20;;;3.30;99.90;;;;;;5077646;28;20457;-78
2022/11/22 09:57:15;;;;;;;49.33;35.07;;;3.30;99.90;;;;;;5077219;28;20970;-78
2022/11/22 09:59:46;;;;;;;45.23;33.63;;;3.40;99.90;;;;;;5075627;28;20443;-75
2022/11/22 10:02:21;;;;;;;50.60;35.87;;;3.40;99.90;;;;;;5078887;28;20452;-78
2022/11/22 10:04:55;;;;;;;46.10;33.60;;;3.40;99.90;;;;;;5083254;28;20428;-78
2022/11/22 10:07:29;;;;;;;47.07;35.90;;;3.50;99.90;;;;;;5077224;28;20996;-79
2022/11/22 10:10:03;;;;;;;45.63;33.20;;;3.50;99.90;;;;;;5078990;28;20428;-78
2022/11/22 10:12:37;;;;;;;46.47;35.03;;;3.60;99.90;;;;;;5077979;28;20801;-78
2022/11/22 10:15:14;;;;;;;49.50;34.93;;;3.70;99.90;;;;;;5077175;28;20444;-78
2022/11/22 10:17:52;;;;;;;44.10;32.40;;;3.70;99.90;;;;;;5077520;28;20437;-79
2022/11/22 10:20:21;;;;;;;47.07;34.60;;;3.80;99.90;;;;;;5077052;28;20448;-76
2022/11/22 10:22:52;;;;;;;45.37;34.57;;;3.90;99.90;;;;;;5074468;28;20469;-76
2022/11/22 10:25:22;;;;;;;42.80;32.17;;;3.90;99.90;;;;;;5075491;28;20422;-76
2022/11/22 10:27:55;;;;;;;45.83;34.93;;;4.00;99.90;;;;;;5075638;28;20436;-76
2022/11/22 10:30:33;;;;;;;44.37;33.20;;;4.00;99.90;;;;;;5075768;28;20834;-76
2022/11/22 10:33:10;;;;;;;43.93;33.10;;;4.00;99.90;;;;;;5074991;28;20465;-76
2022/11/22 10:35:57;;;;;;;41.43;32.87;;;4.10;99.90;;;;;;5073623;28;20544;-76
2022/11/22 10:38:56;;;;;;;42.13;32.67;;;4.10;99.90;;;;;;5075390;28;20463;-76
2022/11/22 10:41:46;;;;;;;40.20;31.73;;;4.20;99.90;;;;;;5072476;28;20808;-76
2022/11/22 10:44:23;;;;;;;40.07;30.10;;;4.20;99.90;;;;;;5073369;28;20487;-76
2022/11/22 10:47:00;;;;;;;38.20;29.30;;;4.30;99.90;;;;;;5073460;28;20463;-76
2022/11/22 10:49:44;;;;;;;37.43;30.17;;;4.40;99.90;;;;;;5074143;28;20441;-76
2022/11/22 10:52:19;;;;;;;37.77;30.57;;;4.40;99.90;;;;;;5074454;28;20818;-76
2022/11/22 10:54:54;;;;;;;35.97;30.10;;;4.50;99.90;;;;;;5074832;28;20413;-76
2022/11/22 10:57:31;;;;;;;35.50;29.47;;;4.60;99.90;;;;;;5075015;28;20519;-76
2022/11/22 11:00:16;;;;;;;39.33;30.87;;;4.60;99.90;;;;;;5074503;28;20429;-76
2022/11/22 11:03:05;;;;;;;37.37;30.40;;;4.70;99.90;;;;;;5073667;28;20457;-76
2022/11/22 11:05:40;;;;;;;37.20;30.93;;;4.70;99.90;;;;;;5074864;28;20421;-76
2022/11/22 11:08:35;;;;;;;33.83;30.23;;;4.80;99.90;;;;;;5074641;28;20421;-77
2022/11/22 11:11:26;;;;;;;31.00;27.47;;;4.80;99.90;;;;;;5073052;28;20442;-77
2022/11/22 11:13:59;;;;;;;33.93;28.70;;;4.90;99.90;;;;;;5074288;28;20539;-77
2022/11/22 11:16:32;;;;;;;29.33;26.17;;;5.00;99.90;;;;;;5072863;28;20437;-77
2022/11/22 11:19:13;;;;;;;32.33;27.60;;;5.00;99.90;;;;;;5074107;28;20425;-77
2022/11/22 11:21:41;;;;;;;33.53;28.73;;;5.10;99.90;;;;;;5072818;28;20515;-77
2022/11/22 11:24:14;;;;;;;33.83;27.53;;;5.10;99.90;;;;;;5073826;28;20974;-77
2022/11/22 11:26:51;;;;;;;28.80;25.77;;;5.20;99.90;;;;;;5072518;28;20468;-77
2022/11/22 11:29:42;;;;;;;31.00;27.43;;;5.20;99.90;;;;;;5072656;28;20444;-77
2022/11/22 11:32:13;;;;;;;29.97;24.17;;;5.30;99.90;;;;;;5073800;28;20433;-76
2022/11/22 11:34:47;;;;;;;29.57;26.27;;;5.30;99.90;;;;;;5072484;28;20460;-76
2022/11/22 11:37:25;;;;;;;31.43;25.47;;;5.30;99.90;;;;;;5072463;28;20435;-77
2022/11/22 11:39:53;;;;;;;31.87;25.30;;;5.40;99.90;;;;;;5072384;28;20441;-76
2022/11/22 11:42:26;;;;;;;27.10;24.43;;;5.40;99.90;;;;;;5072364;28;20555;-77
2022/11/22 11:44:55;;;;;;;26.93;23.97;;;5.50;99.90;;;;;;5072391;28;20532;-77
2022/11/22 11:47:34;;;;;;;29.70;24.40;;;5.50;99.90;;;;;;5072216;28;20472;-77
2022/11/22 11:50:02;;;;;;;25.67;22.97;;;5.60;99.90;;;;;;5073836;28;20949;-77
2022/11/22 11:52:30;;;;;;;25.40;22.90;;;5.60;99.90;;;;;;5072006;28;20461;-76
2022/11/22 11:55:02;;;;;;;28.27;23.13;;;5.60;99.90;;;;;;5073483;28;20442;-77
2022/11/22 11:57:35;;;;;;;29.53;23.90;;;5.70;99.90;;;;;;5072341;28;20539;-77
2022/11/22 12:00:18;;;;;;;27.20;22.60;;;5.70;99.90;;;;;;5072151;28;20531;-77
2022/11/22 12:02:49;;;;;;;28.67;25.03;;;5.80;99.90;;;;;;5073413;28;20468;-76
2022/11/22 12:05:27;;;;;;;25.40;22.87;;;5.80;99.90;;;;;;5073572;28;20479;-77
2022/11/22 12:07:55;;;;;;;27.07;23.77;;;5.80;99.90;;;;;;5072137;28;20519;-77
2022/11/22 12:10:30;;;;;;;24.90;22.23;;;5.80;99.90;;;;;;5073289;28;20445;-77
2022/11/22 12:13:04;;;;;;;24.97;22.30;;;5.90;99.90;;;;;;5072055;28;20484;-77
2022/11/22 12:15:41;;;;;;;24.83;22.13;;;5.90;99.90;;;;;;5072161;28;20452;-77
2022/11/22 12:18:24;;;;;;;22.60;20.20;;;5.90;99.90;;;;;;5072124;28;20437;-77
2022/11/22 12:21:01;;;;;;;23.00;20.47;;;6.00;99.90;;;;;;5072091;28;20457;-77
2022/11/22 12:23:35;;;;;;;23.87;21.47;;;6.00;99.90;;;;;;5073477;28;20475;-77
2022/11/22 12:26:03;;;;;;;23.03;20.63;;;6.10;99.90;;;;;;5072535;28;20473;-77
2022/11/22 12:28:33;;;;;;;24.73;22.13;;;6.10;99.90;;;;;;5073438;28;20465;-77
2022/11/22 12:31:09;;;;;;;23.30;20.97;;;6.10;99.90;;;;;;5073500;28;20444;-77
2022/11/22 12:33:44;;;;;;;24.13;21.13;;;6.10;99.90;;;;;;5071992;28;20472;-77
2022/11/22 12:36:18;;;;;;;23.37;20.40;;;6.20;99.90;;;;;;5071893;28;20450;-77
2022/11/22 12:38:49;;;;;;;26.57;21.53;;;6.20;99.90;;;;;;5073613;28;20432;-77
2022/11/22 12:41:21;;;;;;;23.47;21.17;;;6.20;99.90;;;;;;5073435;28;20437;-77
2022/11/22 12:43:54;;;;;;;21.47;19.27;;;6.20;99.90;;;;;;5073346;28;20499;-76
2022/11/22 12:46:26;;;;;;;23.90;21.60;;;6.20;99.90;;;;;;5071870;28;20443;-77
2022/11/22 12:48:56;;;;;;;21.90;19.50;;;6.30;99.90;;;;;;5073315;28;20457;-77
2022/11/22 12:51:30;;;;;;;21.93;19.70;;;6.30;99.90;;;;;;5072847;28;20448;-77
2022/11/22 12:54:03;;;;;;;22.07;19.77;;;6.30;99.90;;;;;;5072223;28;20473;-77
2022/11/22 12:56:47;;;;;;;21.47;19.13;;;6.30;99.90;;;;;;5072298;28;20858;-77
2022/11/22 12:59:28;;;;;;;23.37;18.73;;;6.40;99.90;;;;;;5071902;28;20457;-77
2022/11/22 13:02:05;;;;;;;21.17;19.00;;;6.40;99.90;;;;;;5071736;28;20476;-77
2022/11/22 13:04:44;;;;;;;24.10;21.60;;;6.30;99.90;;;;;;5072748;28;20980;-77
2022/11/22 13:07:18;;;;;;;22.00;19.60;;;6.40;99.90;;;;;;5076920;28;20946;-77